createdAt,value
2023-02-16T00:00:29.450Z,39.67
2023-02-16T00:02:57.512Z,36.70
2023-02-16T00:05:32.302Z,35.45
2023-02-16T00:08:01.253Z,37.57
2023-02-16T00:10:35.690Z,39.97
2023-02-16T00:13:42.989Z,37.30
2023-02-16T00:16:29.104Z,39.03
2023-02-16T00:21:24.316Z,38.55
2023-02-16T00:23:52.415Z,36.88
2023-02-16T00:26:25.819Z,37.85
2023-02-16T00:29:00.110Z,35.45
2023-02-16T00:31:33.083Z,38.33
2023-02-16T00:34:22.434Z,37.08
2023-02-16T00:36:50.204Z,38.25
2023-02-16T00:39:17.872Z,38.65
2023-02-16T00:41:51.880Z,38.78
2023-02-16T00:44:28.423Z,37.05
2023-02-16T00:46:56.860Z,38.08
2023-02-16T00:49:24.448Z,38.95
2023-02-16T00:51:52.889Z,40.17
2023-02-16T00:54:20.636Z,39.45
2023-02-16T00:56:49.159Z,40.05
2023-02-16T00:59:21.258Z,38.95
2023-02-16T01:01:50.120Z,38.67
2023-02-16T01:04:23.313Z,39.13
2023-02-16T01:07:09.846Z,39.05
2023-02-16T01:09:55.913Z,39.20
2023-02-16T01:14:54.605Z,38.05
2023-02-16T01:17:25.084Z,38.92
2023-02-16T01:19:54.743Z,38.25
2023-02-16T01:22:22.425Z,39.75
2023-02-16T01:24:50.119Z,38.17
2023-02-16T01:27:18.995Z,37.78
2023-02-16T01:29:46.646Z,38.72
2023-02-16T01:32:16.584Z,38.50
2023-02-16T01:34:44.363Z,39.67
2023-02-16T01:37:16.709Z,40.95
2023-02-16T01:39:45.396Z,38.38
2023-02-16T01:42:35.073Z,40.05
2023-02-16T01:45:11.720Z,40.17
2023-02-16T01:47:59.754Z,38.92
2023-02-16T01:50:42.317Z,40.53
2023-02-16T01:53:23.499Z,37.78
2023-02-16T01:55:58.918Z,39.17
2023-02-16T01:58:43.278Z,39.88
2023-02-16T02:01:40.197Z,39.28
2023-02-16T02:04:42.700Z,38.75
2023-02-16T02:07:29.157Z,38.92
2023-02-16T02:10:21.429Z,39.88
2023-02-16T02:13:03.011Z,39.60
2023-02-16T02:15:33.170Z,39.78
2023-02-16T02:18:01.505Z,38.95
2023-02-16T02:21:16.560Z,39.17
2023-02-16T02:24:16.362Z,39.42
2023-02-16T02:27:00.547Z,39.90
2023-02-16T02:30:01.819Z,38.78
2023-02-16T02:32:45.546Z,39.97
2023-02-16T02:35:31.822Z,40.40
2023-02-16T02:38:16.082Z,40.03
2023-02-16T02:41:46.553Z,40.65
2023-02-16T02:44:20.549Z,37.75
2023-02-16T02:46:49.255Z,40.28
2023-02-16T02:49:18.638Z,40.38
2023-02-16T02:51:47.449Z,40.60
2023-02-16T02:54:53.372Z,38.97
2023-02-16T02:58:18.487Z,38.33
2023-02-16T03:00:51.739Z,39.33
2023-02-16T03:03:38.263Z,42.17
2023-02-16T03:06:15.589Z,40.05
2023-02-16T03:08:48.853Z,40.67
2023-02-16T03:11:41.127Z,40.95
2023-02-16T03:14:22.670Z,41.15
2023-02-16T03:17:15.220Z,40.92
2023-02-16T03:20:05.115Z,39.58
2023-02-16T03:22:53.274Z,37.88
2023-02-16T03:25:43.441Z,39.05
2023-02-16T03:28:32.090Z,39.08
2023-02-16T03:31:01.811Z,39.35
2023-02-16T03:33:30.437Z,40.33
2023-02-16T03:35:59.585Z,40.08
2023-02-16T03:38:28.105Z,39.50
2023-02-16T03:40:55.899Z,40.38
2023-02-16T03:43:28.504Z,40.22
2023-02-16T03:45:56.467Z,40.58
2023-02-16T03:48:24.225Z,41.00
2023-02-16T03:50:51.870Z,39.33
2023-02-16T03:53:19.619Z,40.70
2023-02-16T03:55:48.786Z,39.08
2023-02-16T03:58:20.609Z,40.53
2023-02-16T04:00:48.629Z,40.85
2023-02-16T04:03:16.895Z,40.92
2023-02-16T04:05:45.561Z,40.40
2023-02-16T04:08:13.271Z,41.20
2023-02-16T04:10:41.166Z,41.97
2023-02-16T04:13:08.908Z,41.00
2023-02-16T04:15:36.818Z,40.40
2023-02-16T04:18:04.803Z,38.10
2023-02-16T04:20:35.060Z,40.33
2023-02-16T04:23:03.922Z,40.00
2023-02-16T04:25:31.887Z,38.55
2023-02-16T04:28:00.092Z,40.63
2023-02-16T04:30:30.881Z,39.83
2023-02-16T04:32:59.412Z,41.03
2023-02-16T04:35:27.619Z,39.25
2023-02-16T04:37:55.304Z,39.35
2023-02-16T04:40:23.206Z,41.25
2023-02-16T04:42:50.902Z,39.13
2023-02-16T04:45:18.640Z,38.97
2023-02-16T04:47:46.289Z,39.30
2023-02-16T04:50:14.074Z,40.17
2023-02-16T04:52:42.339Z,39.85
2023-02-16T04:55:11.036Z,39.30
2023-02-16T04:57:40.173Z,38.10
2023-02-16T05:00:12.076Z,39.78
2023-02-16T05:02:39.865Z,39.67
2023-02-16T05:05:08.721Z,38.60
2023-02-16T05:07:37.004Z,38.08
2023-02-16T05:10:06.220Z,39.58
2023-02-16T05:12:51.939Z,39.05
2023-02-16T05:15:19.681Z,40.63
2023-02-16T05:17:47.389Z,38.97
2023-02-16T05:20:15.138Z,39.05
2023-02-16T05:22:44.492Z,38.63
2023-02-16T05:25:12.613Z,38.55
2023-02-16T05:27:40.200Z,38.80
2023-02-16T05:30:08.469Z,39.63
2023-02-16T05:32:36.067Z,39.35
2023-02-16T05:35:03.947Z,39.53
2023-02-16T05:37:31.598Z,37.17
2023-02-16T05:39:59.281Z,39.08
2023-02-16T05:42:27.040Z,38.78
2023-02-16T05:44:54.752Z,37.63
2023-02-16T05:47:22.381Z,37.40
2023-02-16T05:49:49.973Z,37.78
2023-02-16T05:52:17.637Z,38.53
2023-02-16T05:54:45.272Z,37.72
2023-02-16T05:57:13.163Z,37.10
2023-02-16T05:59:40.787Z,37.17
2023-02-16T06:02:09.958Z,38.55
2023-02-16T06:04:37.702Z,37.40
2023-02-16T06:07:05.432Z,38.05
2023-02-16T06:09:33.102Z,37.00
2023-02-16T06:12:00.804Z,35.80
2023-02-16T06:14:28.440Z,38.00
2023-02-16T06:16:57.279Z,37.17
2023-02-16T06:19:25.226Z,37.50
2023-02-16T06:21:52.981Z,36.95
2023-02-16T06:24:20.546Z,37.33
2023-02-16T06:26:48.328Z,37.88
2023-02-16T06:29:16.152Z,38.63
2023-02-16T06:31:44.040Z,37.33
2023-02-16T06:34:11.910Z,38.15
2023-02-16T06:36:42.415Z,35.53
2023-02-16T06:39:10.589Z,37.45
2023-02-16T06:41:40.430Z,36.35
2023-02-16T06:44:15.312Z,38.60
2023-02-16T06:46:47.903Z,38.20
2023-02-16T06:49:20.200Z,37.78
2023-02-16T06:51:49.668Z,36.63
2023-02-16T06:54:18.293Z,35.63
2023-02-16T06:56:46.033Z,38.08
2023-02-16T06:59:13.921Z,37.40
2023-02-16T07:01:44.067Z,36.92
2023-02-16T07:04:12.772Z,36.75
2023-02-16T07:06:41.273Z,37.05
2023-02-16T07:09:10.593Z,38.85
2023-02-16T07:11:39.286Z,37.50
2023-02-16T07:14:06.977Z,37.53
2023-02-16T07:16:34.741Z,38.42
2023-02-16T07:19:02.621Z,38.70
2023-02-16T07:21:30.282Z,41.13
2023-02-16T07:23:57.946Z,40.25
2023-02-16T07:26:25.702Z,40.75
2023-02-16T07:28:53.350Z,39.35
2023-02-16T07:31:21.439Z,41.78
2023-02-16T07:33:49.171Z,40.70
2023-02-16T07:36:16.853Z,39.13
2023-02-16T07:38:44.513Z,38.63
2023-02-16T07:41:12.772Z,39.55
2023-02-16T07:43:42.823Z,39.13
2023-02-16T07:46:10.886Z,38.58
2023-02-16T07:48:38.811Z,38.90
2023-02-16T07:51:06.876Z,38.03
2023-02-16T07:53:34.873Z,39.60
2023-02-16T07:56:02.700Z,40.33
2023-02-16T07:58:30.474Z,39.60
2023-02-16T08:01:10.962Z,38.58
2023-02-16T08:03:38.924Z,39.35
2023-02-16T08:06:07.998Z,38.85
2023-02-16T08:08:37.243Z,37.83
2023-02-16T08:11:19.606Z,39.53
2023-02-16T08:13:47.871Z,37.08
2023-02-16T08:16:26.374Z,39.33
2023-02-16T08:18:57.121Z,38.63
2023-02-16T08:21:31.943Z,42.30
2023-02-16T08:24:03.848Z,37.77
2023-02-16T08:26:40.740Z,39.85
2023-02-16T08:29:15.197Z,39.55
2023-02-16T08:31:43.128Z,41.45
2023-02-16T08:34:10.984Z,38.95
2023-02-16T08:36:40.209Z,40.85
2023-02-16T08:39:18.152Z,41.50
2023-02-16T08:41:48.531Z,40.42
2023-02-16T08:44:18.281Z,40.17
2023-02-16T08:46:48.650Z,40.13
2023-02-16T08:49:19.051Z,40.65
2023-02-16T08:51:54.776Z,40.58
2023-02-16T08:54:28.064Z,41.47
2023-02-16T08:56:57.439Z,40.20
2023-02-16T08:59:28.428Z,40.95
2023-02-16T09:01:58.320Z,39.30
2023-02-16T09:04:28.948Z,38.67
2023-02-16T09:06:58.466Z,40.45
2023-02-16T09:09:27.510Z,39.63
2023-02-16T09:11:56.201Z,37.38
2023-02-16T09:14:24.417Z,40.95
2023-02-16T09:16:52.949Z,38.28
2023-02-16T09:19:22.031Z,37.72
2023-02-16T09:21:56.319Z,39.53
2023-02-16T09:24:24.024Z,37.33
2023-02-16T09:26:52.100Z,36.72
2023-02-16T09:29:21.230Z,37.80
2023-02-16T09:31:49.517Z,37.78
2023-02-16T09:34:21.279Z,37.08
2023-02-16T09:36:50.396Z,35.03
2023-02-16T09:39:19.194Z,37.40
2023-02-16T09:42:15.088Z,35.88
2023-02-16T09:44:49.384Z,36.67
2023-02-16T09:47:45.875Z,36.53
2023-02-16T09:53:36.229Z,35.83
2023-02-16T09:56:45.477Z,35.38
2023-02-16T09:59:39.283Z,35.50
2023-02-16T10:02:23.271Z,33.67
2023-02-16T10:05:08.698Z,34.40
2023-02-16T10:08:14.520Z,34.50
2023-02-16T10:11:30.287Z,34.33
2023-02-16T10:14:06.569Z,34.83
2023-02-16T10:16:41.940Z,33.53
2023-02-16T10:19:30.430Z,33.35
2023-02-16T10:22:03.995Z,31.85
2023-02-16T10:24:44.561Z,31.25
2023-02-16T10:27:16.594Z,32.15
2023-02-16T10:29:44.374Z,32.63
2023-02-16T10:32:16.642Z,32.50
2023-02-16T10:34:47.043Z,31.40
2023-02-16T10:37:33.087Z,31.05
2023-02-16T10:40:36.657Z,32.28
2023-02-16T10:43:32.385Z,30.98
2023-02-16T10:46:01.817Z,31.67
2023-02-16T10:48:29.971Z,29.70
2023-02-16T10:51:07.487Z,29.08
2023-02-16T10:53:44.994Z,28.58
2023-02-16T10:56:37.555Z,30.10
2023-02-16T10:59:15.884Z,30.15
2023-02-16T11:01:59.112Z,28.73
2023-02-16T11:04:43.155Z,28.25
2023-02-16T11:07:22.138Z,28.73
2023-02-16T11:09:54.181Z,27.40
2023-02-16T11:12:36.852Z,26.05
2023-02-16T11:15:17.837Z,27.30
2023-02-16T11:18:08.072Z,26.80
2023-02-16T11:20:55.013Z,27.17
2023-02-16T11:23:31.870Z,26.58
2023-02-16T11:26:10.568Z,27.00
2023-02-16T11:28:40.959Z,26.88
2023-02-16T11:31:33.400Z,27.92
2023-02-16T11:34:21.335Z,26.98
2023-02-16T11:36:49.337Z,27.55
2023-02-16T11:39:30.975Z,26.98
2023-02-16T11:42:07.793Z,26.63
2023-02-16T11:44:47.009Z,26.85
2023-02-16T11:47:26.181Z,26.20
2023-02-16T11:50:29.012Z,25.40
2023-02-16T11:53:24.476Z,25.75
2023-02-16T11:56:21.617Z,26.05
2023-02-16T11:59:19.341Z,25.65
2023-02-16T12:02:17.556Z,25.98
2023-02-16T12:05:16.243Z,26.52
2023-02-16T12:08:20.904Z,25.58
2023-02-16T12:11:04.730Z,26.23
2023-02-16T12:14:03.494Z,25.13
2023-02-16T12:16:51.900Z,25.92
2023-02-16T12:19:25.204Z,24.80
2023-02-16T12:22:04.238Z,25.17
2023-02-16T12:24:58.066Z,24.13
2023-02-16T12:27:33.714Z,24.63
2023-02-16T12:30:04.332Z,25.27
2023-02-16T12:32:47.897Z,23.08
2023-02-16T12:35:24.977Z,23.13
2023-02-16T12:38:16.699Z,22.05
2023-02-16T12:41:08.516Z,22.60
2023-02-16T12:43:45.805Z,22.15
2023-02-16T12:46:28.282Z,22.80
2023-02-16T12:49:07.487Z,21.23
2023-02-16T12:51:46.397Z,20.10
2023-02-16T12:54:22.797Z,18.85
2023-02-16T12:57:15.481Z,18.42
2023-02-16T13:00:21.953Z,16.35
2023-02-16T13:03:34.901Z,16.27
2023-02-16T13:06:22.809Z,16.17
2023-02-16T13:09:21.905Z,15.48
2023-02-16T13:12:07.684Z,16.17
2023-02-16T13:14:41.780Z,15.57
2023-02-16T13:17:16.597Z,14.80
2023-02-16T13:19:46.832Z,16.38
2023-02-16T13:22:54.070Z,17.02
2023-02-16T13:25:33.394Z,17.17
2023-02-16T13:28:58.544Z,16.05
2023-02-16T13:31:54.513Z,15.88
2023-02-16T13:34:34.199Z,16.30
2023-02-16T13:37:29.136Z,16.63
2023-02-16T13:40:41.422Z,15.57
2023-02-16T13:43:30.109Z,17.65
2023-02-16T13:46:04.364Z,16.25
2023-02-16T13:48:55.276Z,16.90
2023-02-16T13:51:26.649Z,16.50
2023-02-16T13:54:01.508Z,17.02
2023-02-16T13:56:29.500Z,16.90
2023-02-16T13:59:20.253Z,17.42
2023-02-16T14:01:50.980Z,16.42
2023-02-16T14:04:38.920Z,17.00
2023-02-16T14:07:10.351Z,16.80
2023-02-16T14:09:38.125Z,15.85
2023-02-16T14:12:11.822Z,17.90
2023-02-16T14:15:07.547Z,17.98
2023-02-16T14:17:35.882Z,17.30
2023-02-16T14:20:24.902Z,18.55
2023-02-16T14:23:00.199Z,16.98
2023-02-16T14:25:29.016Z,18.58
2023-02-16T14:28:07.001Z,17.00
2023-02-16T14:30:57.157Z,17.10
2023-02-16T14:34:03.994Z,16.25
2023-02-16T14:36:32.163Z,16.80
2023-02-16T14:39:01.585Z,17.58
2023-02-16T14:41:36.927Z,16.05
2023-02-16T14:44:04.602Z,15.82
2023-02-16T14:46:57.016Z,15.85
2023-02-16T14:49:52.028Z,16.23
2023-02-16T14:53:02.396Z,16.27
2023-02-16T14:55:44.817Z,17.13
2023-02-16T14:58:32.007Z,16.95
2023-02-16T15:01:18.916Z,16.00
2023-02-16T15:03:56.330Z,16.85
2023-02-16T15:06:45.060Z,16.55
2023-02-16T15:09:42.496Z,17.80
2023-02-16T15:12:23.067Z,17.88
2023-02-16T15:15:05.009Z,17.50
2023-02-16T15:17:45.383Z,17.55
2023-02-16T15:20:31.789Z,17.55
2023-02-16T15:23:04.756Z,19.40
2023-02-16T15:25:39.059Z,17.17
2023-02-16T15:28:12.678Z,14.50
2023-02-16T15:30:47.270Z,13.93
2023-02-16T15:33:32.722Z,13.68
2023-02-16T15:36:02.969Z,12.18
2023-02-16T15:38:38.312Z,12.02
2023-02-16T15:41:13.531Z,12.45
2023-02-16T15:43:52.107Z,13.38
2023-02-16T15:46:40.583Z,12.95
2023-02-16T15:49:26.361Z,13.75
2023-02-16T15:51:59.289Z,14.35
2023-02-16T15:54:30.734Z,14.40
2023-02-16T15:57:30.900Z,13.77
2023-02-16T16:00:03.446Z,13.95
2023-02-16T16:02:43.986Z,13.07
2023-02-16T16:05:27.214Z,13.05
2023-02-16T16:07:56.847Z,13.55
2023-02-16T16:10:41.065Z,12.40
2023-02-16T16:13:23.648Z,11.90
2023-02-16T16:15:53.244Z,11.38
2023-02-16T16:18:43.353Z,11.20
2023-02-16T16:21:24.121Z,11.27
2023-02-16T16:24:22.617Z,10.63
2023-02-16T16:26:57.789Z,12.13
2023-02-16T16:29:42.631Z,11.18
2023-02-16T16:32:21.964Z,10.18
2023-02-16T16:34:50.055Z,11.32
2023-02-16T16:37:50.215Z,10.98
2023-02-16T16:40:29.666Z,11.27
2023-02-16T16:43:16.015Z,11.70
2023-02-16T16:45:48.711Z,11.93
2023-02-16T16:48:29.090Z,13.32
2023-02-16T16:51:40.549Z,14.40
2023-02-16T16:54:33.128Z,13.82
2023-02-16T16:57:00.973Z,15.25
2023-02-16T16:59:28.578Z,15.43
2023-02-16T17:01:56.275Z,14.90
2023-02-16T17:04:24.003Z,16.23
2023-02-16T17:06:51.799Z,16.70
2023-02-16T17:09:19.450Z,16.75
2023-02-16T17:11:47.254Z,15.68
2023-02-16T17:14:19.186Z,16.25
2023-02-16T17:16:51.200Z,15.82
2023-02-16T17:19:22.514Z,16.00
2023-02-16T17:21:50.477Z,16.52
2023-02-16T17:24:18.119Z,16.73
2023-02-16T17:26:45.743Z,16.27
2023-02-16T17:29:13.467Z,17.48
2023-02-16T17:31:41.113Z,16.45
2023-02-16T17:34:09.040Z,18.02
2023-02-16T17:36:38.590Z,17.23
2023-02-16T17:39:07.305Z,18.10
2023-02-16T17:41:34.957Z,18.50
2023-02-16T17:44:04.066Z,18.55
2023-02-16T17:46:32.517Z,19.13
2023-02-16T17:49:00.186Z,20.13
2023-02-16T17:51:29.666Z,19.63
2023-02-16T17:53:57.371Z,20.20
2023-02-16T17:56:25.562Z,19.40
2023-02-16T17:58:53.282Z,23.10
2023-02-16T18:01:21.727Z,24.15
2023-02-16T18:03:49.905Z,20.88
2023-02-16T18:06:20.825Z,22.70
2023-02-16T18:08:48.592Z,18.02
2023-02-16T18:11:16.744Z,19.85
2023-02-16T18:13:45.304Z,19.35
2023-02-16T18:16:21.803Z,20.02
2023-02-16T18:18:49.605Z,18.92
2023-02-16T18:21:17.379Z,18.85
2023-02-16T18:23:44.988Z,19.30
2023-02-16T18:26:17.333Z,18.92
2023-02-16T18:28:45.350Z,19.02
2023-02-16T18:31:14.558Z,18.88
2023-02-16T18:33:42.561Z,18.33
2023-02-16T18:36:10.468Z,18.33
2023-02-16T18:38:38.662Z,17.80
2023-02-16T18:41:06.454Z,18.98
2023-02-16T18:43:35.820Z,19.02
2023-02-16T18:46:08.361Z,17.98
2023-02-16T18:48:36.688Z,17.52
2023-02-16T18:51:09.707Z,16.50
2023-02-16T18:53:38.067Z,18.10
2023-02-16T18:56:07.974Z,15.52
2023-02-16T18:58:36.532Z,16.75
2023-02-16T19:01:28.693Z,15.50
2023-02-16T19:03:57.113Z,15.07
2023-02-16T19:06:25.156Z,14.38
2023-02-16T19:08:52.986Z,14.20
2023-02-16T19:11:21.773Z,13.10
2023-02-16T19:13:49.659Z,12.80
2023-02-16T19:16:17.880Z,12.00
2023-02-16T19:18:45.963Z,12.05
2023-02-16T19:21:14.834Z,12.35
2023-02-16T19:23:42.557Z,11.85
2023-02-16T19:26:14.768Z,11.75
2023-02-16T19:28:44.235Z,10.93
2023-02-16T19:31:25.172Z,10.57
2023-02-16T19:33:53.757Z,10.02
2023-02-16T19:36:22.663Z,9.73
2023-02-16T19:38:50.687Z,9.43
2023-02-16T19:41:23.499Z,10.10
2023-02-16T19:43:51.580Z,8.98
2023-02-16T19:46:19.651Z,9.63
2023-02-16T19:48:47.765Z,9.07
2023-02-16T19:51:16.628Z,9.88
2023-02-16T19:53:44.679Z,9.63
2023-02-16T19:56:19.024Z,9.52
2023-02-16T19:58:47.670Z,8.88
2023-02-16T20:01:23.432Z,8.50
2023-02-16T20:03:52.855Z,8.15
2023-02-16T20:06:42.070Z,7.32
2023-02-16T20:09:13.514Z,7.28
2023-02-16T20:11:41.771Z,7.30
2023-02-16T20:14:10.893Z,6.70
2023-02-16T20:16:40.954Z,6.45
2023-02-16T20:19:10.395Z,7.18
2023-02-16T20:21:38.096Z,6.60
2023-02-16T20:24:06.617Z,7.03
2023-02-16T20:26:44.383Z,7.03
2023-02-16T20:29:16.173Z,6.55
2023-02-16T20:31:56.024Z,6.20
2023-02-16T20:34:27.557Z,7.03
2023-02-16T20:36:55.704Z,6.43
2023-02-16T20:39:23.470Z,6.95
2023-02-16T20:41:51.510Z,6.07
2023-02-16T20:44:19.420Z,5.88
2023-02-16T20:46:47.210Z,6.50
2023-02-16T20:49:16.297Z,6.00
2023-02-16T20:51:44.542Z,6.38
2023-02-16T20:54:12.577Z,6.18
2023-02-16T20:56:41.159Z,6.10
2023-02-16T20:59:11.420Z,5.38
2023-02-16T21:01:43.620Z,6.15
2023-02-16T21:04:12.610Z,5.35
2023-02-16T21:06:40.847Z,5.55
2023-02-16T21:09:10.289Z,5.10
2023-02-16T21:11:39.217Z,5.78
2023-02-16T21:14:08.813Z,4.72
2023-02-16T21:16:37.677Z,5.13
2023-02-16T21:19:11.725Z,4.78
2023-02-16T21:21:45.103Z,4.05
2023-02-16T21:24:12.872Z,3.97
2023-02-16T21:26:41.315Z,4.22
2023-02-16T21:29:08.942Z,4.50
2023-02-16T21:31:36.689Z,4.78
2023-02-16T21:34:04.504Z,4.07
2023-02-16T21:36:32.264Z,3.90
2023-02-16T21:39:02.905Z,4.53
2023-02-16T21:41:30.771Z,4.28
2023-02-16T21:44:04.844Z,3.92
2023-02-16T21:46:46.218Z,4.65
2023-02-16T21:49:19.986Z,4.28
2023-02-16T21:51:48.977Z,4.00
2023-02-16T21:54:39.818Z,4.00
2023-02-16T21:57:07.437Z,4.25
2023-02-16T21:59:35.100Z,4.55
2023-02-16T22:02:02.856Z,4.80
2023-02-16T22:04:30.552Z,5.05
2023-02-16T22:06:58.206Z,4.63
2023-02-16T22:09:25.938Z,4.85
2023-02-16T22:11:53.741Z,5.57
2023-02-16T22:14:21.541Z,5.72
2023-02-16T22:16:50.724Z,5.22
2023-02-16T22:19:19.429Z,5.35
2023-02-16T22:21:48.722Z,4.75
2023-02-16T22:24:18.321Z,4.78
2023-02-16T22:26:48.989Z,5.80
2023-02-16T22:29:17.912Z,5.25
2023-02-16T22:31:48.309Z,6.75
2023-02-16T22:34:21.896Z,6.15
2023-02-16T22:36:49.931Z,5.75
2023-02-16T22:39:18.725Z,6.35
2023-02-16T22:41:46.428Z,6.32
2023-02-16T22:44:15.689Z,6.22
2023-02-16T22:46:43.661Z,6.55
2023-02-16T22:49:11.471Z,6.97
2023-02-16T22:51:39.240Z,8.05
2023-02-16T22:54:07.464Z,7.82
2023-02-16T22:56:35.623Z,7.90
2023-02-16T22:59:03.587Z,7.50
2023-02-16T23:01:32.311Z,7.40
2023-02-16T23:04:01.480Z,7.70
2023-02-16T23:06:37.488Z,8.35
2023-02-16T23:09:11.564Z,7.32
2023-02-16T23:11:39.368Z,7.93
2023-02-16T23:14:16.291Z,7.30
2023-02-16T23:16:47.121Z,7.40
2023-02-16T23:19:19.026Z,7.32
2023-02-16T23:21:48.159Z,7.05
2023-02-16T23:24:20.022Z,7.20
2023-02-16T23:26:48.081Z,7.40
2023-02-16T23:29:16.079Z,7.93
2023-02-16T23:31:46.821Z,7.35
2023-02-16T23:34:15.747Z,7.68
2023-02-16T23:36:43.980Z,8.38
2023-02-16T23:39:15.536Z,8.25
2023-02-16T23:41:43.844Z,7.97
2023-02-16T23:44:14.083Z,8.07
2023-02-16T23:46:41.855Z,7.93
2023-02-16T23:49:09.607Z,8.02
2023-02-16T23:51:37.350Z,8.88
2023-02-16T23:54:05.264Z,7.93
2023-02-16T23:56:33.026Z,8.02
2023-02-16T23:59:02.019Z,8.68
